createdAt,value
2022-09-26T00:01:29.518Z,62.7
2022-09-26T00:30:01.793Z,62.64
2022-09-26T00:58:29.475Z,62.6
2022-09-26T01:27:05.264Z,62.56
2022-09-26T01:55:50.183Z,62.48
2022-09-26T02:24:14.614Z,62.42
2022-09-26T02:52:47.484Z,62.38
2022-09-26T03:21:38.514Z,62.35
2022-09-26T03:49:59.355Z,62.37
2022-09-26T04:18:35.202Z,62.3
2022-09-26T04:47:08.871Z,62.24
2022-09-26T05:15:54.789Z,62.16
2022-09-26T05:44:27.538Z,62.12
2022-09-26T06:13:05.589Z,62.18
2022-09-26T06:41:34.790Z,62.06
2022-09-26T07:10:01.878Z,62.05
2022-09-26T07:38:25.811Z,62.02
2022-09-26T08:07:01.080Z,62.01
2022-09-26T08:35:30.394Z,61.99
2022-09-26T09:03:46.443Z,62
2022-09-26T09:32:29.074Z,62.02
2022-09-26T10:01:04.238Z,61.94
2022-09-26T10:29:29.245Z,61.84
2022-09-26T10:57:54.700Z,61.75
2022-09-26T11:26:20.047Z,61.7
2022-09-26T11:54:54.363Z,61.65
2022-09-26T12:23:30.755Z,61.68
2022-09-26T12:52:15.265Z,61.84
2022-09-26T13:20:53.228Z,61.88
2022-09-26T13:49:24.732Z,61.85
2022-09-26T14:17:47.462Z,61.69
2022-09-26T14:46:09.630Z,61.67
2022-09-26T15:43:19.280Z,61.67
2022-09-26T16:41:15.858Z,61.5
2022-09-26T17:09:32.096Z,61.52
2022-09-26T17:37:49.828Z,61.54
2022-09-26T18:06:19.633Z,61.44
2022-09-26T18:34:38.748Z,61.28
2022-09-26T19:03:27.090Z,61.25
2022-09-26T19:31:24.834Z,61.28
2022-09-26T20:00:01.860Z,61.38
2022-09-26T20:28:41.572Z,61.38
2022-09-26T20:57:33.001Z,61.32
2022-09-26T21:25:37.334Z,61.21
2022-09-26T21:54:08.850Z,61.1
2022-09-26T22:22:54.876Z,61
2022-09-26T22:51:35.638Z,60.93
2022-09-26T23:20:24.263Z,60.87
2022-09-26T23:48:58.670Z,60.84
